createdAt,value
2018-02-22T00:00:33.844Z,34.47
2018-02-22T00:03:01.482Z,34.05
2018-02-22T00:05:29.062Z,34.63
2018-02-22T00:07:56.661Z,34.22
2018-02-22T00:10:24.225Z,33.20
2018-02-22T00:12:51.847Z,34.20
2018-02-22T00:15:19.450Z,34.80
2018-02-22T00:17:47.051Z,34.22
2018-02-22T00:20:14.678Z,33.55
2018-02-22T00:22:42.295Z,32.90
2018-02-22T00:25:09.895Z,33.78
2018-02-22T00:27:37.504Z,34.42
2018-02-22T00:30:05.127Z,33.55
2018-02-22T00:32:32.731Z,33.38
2018-02-22T00:35:00.325Z,32.75
2018-02-22T00:37:27.924Z,33.35
2018-02-22T00:39:56.344Z,30.95
2018-02-22T00:42:23.931Z,32.28
2018-02-22T00:45:05.599Z,30.60
2018-02-22T00:47:33.151Z,32.10
2018-02-22T00:50:00.761Z,30.62
2018-02-22T00:52:29.123Z,30.45
2018-02-22T00:54:56.731Z,30.23
2018-02-22T00:57:24.375Z,29.85
2018-02-22T00:59:52.776Z,29.98
2018-02-22T01:02:20.381Z,29.63
2018-02-22T01:04:48.028Z,30.85
2018-02-22T01:07:15.655Z,30.48
2018-02-22T01:09:43.262Z,30.65
2018-02-22T01:12:10.876Z,30.02
2018-02-22T01:14:38.468Z,29.92
2018-02-22T01:17:06.033Z,29.20
2018-02-22T01:19:33.623Z,30.52
2018-02-22T01:22:02.007Z,29.15
2018-02-22T01:24:30.365Z,31.00
2018-02-22T01:26:57.947Z,31.35
2018-02-22T01:29:26.308Z,29.35
2018-02-22T01:31:53.914Z,29.50
2018-02-22T01:34:21.549Z,29.37
2018-02-22T01:36:49.919Z,29.15
2018-02-22T01:39:18.262Z,28.95
2018-02-22T01:41:45.868Z,28.70
2018-02-22T01:44:14.210Z,29.63
2018-02-22T01:46:41.843Z,30.12
2018-02-22T01:49:09.452Z,31.25
2018-02-22T01:51:37.815Z,28.27
2018-02-22T01:54:05.411Z,30.25
2018-02-22T01:56:33.045Z,30.17
2018-02-22T01:59:00.640Z,27.92
2018-02-22T02:01:28.235Z,25.95
2018-02-22T02:03:55.807Z,27.45
2018-02-22T02:06:23.366Z,29.55
2018-02-22T02:08:51.011Z,28.98
2018-02-22T02:11:18.669Z,29.15
2018-02-22T02:13:46.266Z,29.85
2018-02-22T02:16:13.846Z,28.80
2018-02-22T02:18:42.223Z,30.77
2018-02-22T02:21:10.598Z,30.90
2018-02-22T02:23:39.000Z,31.17
2018-02-22T02:26:06.562Z,30.45
2018-02-22T02:28:34.171Z,32.38
2018-02-22T02:31:01.784Z,29.48
2018-02-22T02:33:29.408Z,30.70
2018-02-22T02:35:57.795Z,31.02
2018-02-22T02:38:26.179Z,29.58
2018-02-22T02:40:54.557Z,28.33
2018-02-22T02:43:22.888Z,29.58
2018-02-22T02:45:50.467Z,28.45
2018-02-22T02:48:18.056Z,29.58
2018-02-22T02:50:46.430Z,28.70
2018-02-22T02:53:14.807Z,31.10
2018-02-22T02:55:43.175Z,29.55
2018-02-22T02:58:11.549Z,28.00
2018-02-22T03:03:42.788Z,28.50
2018-02-22T03:06:10.375Z,31.35
2018-02-22T03:08:38.023Z,28.58
2018-02-22T03:11:05.591Z,30.25
2018-02-22T03:13:33.208Z,29.80
2018-02-22T03:16:00.775Z,28.50
2018-02-22T03:18:28.392Z,28.00
2018-02-22T03:20:56.747Z,27.55
2018-02-22T03:23:24.399Z,28.10
2018-02-22T03:25:52.018Z,27.70
2018-02-22T03:28:19.667Z,28.98
2018-02-22T03:30:47.258Z,28.60
2018-02-22T03:33:14.862Z,28.42
2018-02-22T03:35:42.431Z,31.10
2018-02-22T03:38:10.763Z,31.10
2018-02-22T03:40:38.395Z,28.75
2018-02-22T03:43:05.998Z,29.33
2018-02-22T03:45:33.571Z,28.92
2018-02-22T03:48:01.164Z,28.15
2018-02-22T03:50:28.771Z,31.17
2018-02-22T03:52:56.372Z,29.98
2018-02-22T03:55:24.720Z,28.33
2018-02-22T03:57:52.363Z,29.92
2018-02-22T04:00:19.967Z,29.12
2018-02-22T04:02:48.306Z,31.10
2018-02-22T04:05:15.914Z,28.67
2018-02-22T04:07:43.508Z,30.60
2018-02-22T04:10:11.108Z,29.40
2018-02-22T04:12:38.671Z,31.10
2018-02-22T04:15:06.239Z,30.70
2018-02-22T04:17:34.598Z,28.60
2018-02-22T04:20:02.246Z,29.37
2018-02-22T04:22:29.829Z,30.23
2018-02-22T04:24:57.451Z,30.35
2018-02-22T04:27:25.073Z,31.70
2018-02-22T04:29:53.431Z,33.20
2018-02-22T04:32:21.062Z,31.42
2018-02-22T04:34:48.627Z,31.12
2018-02-22T04:37:16.254Z,30.12
2018-02-22T04:39:43.888Z,31.75
2018-02-22T04:42:12.254Z,29.95
2018-02-22T04:44:39.837Z,30.17
2018-02-22T04:47:07.510Z,30.85
2018-02-22T04:49:35.067Z,26.85
2018-02-22T04:52:02.643Z,29.60
2018-02-22T04:54:30.260Z,27.83
2018-02-22T04:56:57.913Z,27.52
2018-02-22T04:59:25.519Z,29.70
2018-02-22T05:01:53.115Z,28.12
2018-02-22T05:04:20.756Z,28.62
2018-02-22T05:06:48.327Z,26.77
2018-02-22T05:09:15.914Z,26.92
2018-02-22T05:11:43.550Z,26.40
2018-02-22T05:14:11.177Z,26.50
2018-02-22T05:16:38.767Z,25.80
2018-02-22T05:19:06.366Z,26.37
2018-02-22T05:21:34.732Z,24.98
2018-02-22T05:24:02.374Z,24.85
2018-02-22T05:26:29.959Z,24.25
2018-02-22T05:28:58.340Z,23.60
2018-02-22T05:31:26.714Z,24.45
2018-02-22T05:33:54.343Z,19.62
2018-02-22T05:36:21.960Z,24.70
2018-02-22T05:38:49.570Z,23.40
2018-02-22T05:41:17.156Z,23.15
2018-02-22T05:43:44.761Z,23.83
2018-02-22T05:46:12.376Z,23.10
2018-02-22T05:48:40.019Z,21.92
2018-02-22T05:51:07.621Z,23.50
2018-02-22T05:53:35.239Z,23.10
2018-02-22T05:56:02.875Z,23.17
2018-02-22T05:58:30.489Z,23.45
2018-02-22T06:00:58.842Z,23.40
2018-02-22T06:03:26.479Z,24.48
2018-02-22T06:05:54.095Z,24.02
2018-02-22T06:08:22.437Z,25.85
2018-02-22T06:10:50.111Z,22.80
2018-02-22T06:13:17.715Z,23.27
2018-02-22T06:15:45.351Z,24.55
2018-02-22T06:18:13.706Z,21.70
2018-02-22T06:20:41.311Z,24.95
2018-02-22T06:23:08.934Z,23.52
2018-02-22T06:25:36.564Z,24.45
2018-02-22T06:28:04.223Z,22.48
2018-02-22T06:30:31.846Z,24.95
2018-02-22T06:32:59.536Z,22.95
2018-02-22T06:35:27.845Z,23.80
2018-02-22T06:37:55.462Z,25.70
2018-02-22T06:40:23.099Z,26.00
2018-02-22T06:42:51.505Z,23.10
2018-02-22T06:45:19.119Z,22.98
2018-02-22T06:47:46.717Z,21.85
2018-02-22T06:50:14.314Z,22.65
2018-02-22T06:52:41.991Z,22.17
2018-02-22T06:55:09.560Z,22.13
2018-02-22T06:57:37.158Z,23.23
2018-02-22T07:00:04.759Z,24.02
2018-02-22T07:02:32.345Z,23.83
2018-02-22T07:04:59.959Z,22.75
2018-02-22T07:07:27.572Z,24.55
2018-02-22T07:09:55.964Z,22.30
2018-02-22T07:12:24.298Z,23.27
2018-02-22T07:14:51.938Z,21.40
2018-02-22T07:17:19.531Z,21.48
2018-02-22T07:19:47.166Z,21.37
2018-02-22T07:22:14.744Z,23.15
2018-02-22T07:24:42.382Z,24.42
2018-02-22T07:27:09.983Z,23.58
2018-02-22T07:29:57.148Z,24.70
2018-02-22T07:32:24.746Z,22.73
2018-02-22T07:34:52.393Z,24.95
2018-02-22T07:37:19.999Z,23.80
2018-02-22T07:39:48.365Z,25.37
2018-02-22T07:42:15.972Z,24.85
2018-02-22T07:44:43.622Z,24.55
2018-02-22T07:47:11.231Z,23.65
2018-02-22T07:49:38.819Z,24.60
2018-02-22T07:52:06.475Z,20.83
2018-02-22T07:54:34.827Z,25.83
2018-02-22T07:57:02.395Z,26.35
2018-02-22T07:59:30.000Z,27.27
2018-02-22T08:01:57.608Z,26.98
2018-02-22T08:04:25.240Z,26.67
2018-02-22T08:06:52.845Z,26.42
2018-02-22T08:09:20.463Z,22.80
2018-02-22T08:11:48.103Z,25.95
2018-02-22T08:14:15.720Z,20.62
2018-02-22T08:16:43.316Z,27.27
2018-02-22T08:19:10.952Z,25.88
2018-02-22T08:21:39.299Z,21.58
2018-02-22T08:24:06.940Z,26.40
2018-02-22T08:26:34.590Z,25.95
2018-02-22T08:29:02.176Z,25.52
2018-02-22T08:31:29.763Z,25.45
2018-02-22T08:33:57.396Z,25.33
2018-02-22T08:36:24.990Z,25.50
2018-02-22T08:38:52.631Z,26.30
2018-02-22T08:41:20.259Z,24.50
2018-02-22T08:43:47.914Z,23.83
2018-02-22T08:46:15.515Z,27.08
2018-02-22T08:48:43.130Z,23.10
2018-02-22T08:51:10.699Z,25.73
2018-02-22T08:53:38.308Z,21.75
2018-02-22T08:56:05.891Z,23.95
2018-02-22T08:58:34.247Z,26.17
2018-02-22T09:01:01.860Z,20.20
2018-02-22T09:03:29.515Z,22.50
2018-02-22T09:05:57.137Z,22.60
2018-02-22T09:08:24.732Z,24.95
2018-02-22T09:10:52.351Z,25.05
2018-02-22T09:13:19.917Z,25.05
2018-02-22T09:15:47.487Z,24.90
2018-02-22T09:18:15.880Z,25.95
2018-02-22T09:20:43.482Z,25.00
2018-02-22T09:23:11.070Z,23.80
2018-02-22T09:25:39.433Z,26.45
2018-02-22T09:28:07.039Z,24.63
2018-02-22T09:30:34.604Z,25.30
2018-02-22T09:33:02.214Z,23.98
2018-02-22T09:35:29.839Z,20.80
2018-02-22T09:37:57.444Z,24.27
2018-02-22T09:40:25.095Z,25.83
2018-02-22T09:42:52.730Z,24.80
2018-02-22T09:45:20.328Z,25.52
2018-02-22T09:47:47.950Z,25.33
2018-02-22T09:50:15.565Z,23.05
2018-02-22T09:52:43.964Z,24.40
2018-02-22T09:55:11.592Z,26.33
2018-02-22T09:57:39.199Z,26.62
2018-02-22T10:00:06.811Z,24.95
2018-02-22T10:02:35.199Z,25.75
2018-02-22T10:05:03.533Z,25.75
2018-02-22T10:07:31.154Z,25.40
2018-02-22T10:09:59.535Z,27.13
2018-02-22T10:12:27.168Z,24.63
2018-02-22T10:14:54.763Z,23.98
2018-02-22T10:17:22.350Z,24.35
2018-02-22T10:19:49.995Z,24.50
2018-02-22T10:22:17.656Z,24.98
2018-02-22T10:24:45.274Z,20.62
2018-02-22T10:27:12.911Z,22.55
2018-02-22T10:29:40.491Z,24.58
2018-02-22T10:32:08.127Z,24.92
2018-02-22T10:34:35.693Z,24.77
2018-02-22T10:37:03.256Z,23.92
2018-02-22T10:39:30.886Z,20.12
2018-02-22T10:41:58.482Z,22.70
2018-02-22T10:44:26.100Z,21.58
2018-02-22T10:46:53.727Z,20.02
2018-02-22T10:49:22.115Z,21.60
2018-02-22T10:51:50.511Z,19.95
2018-02-22T10:54:18.143Z,21.98
2018-02-22T10:56:46.562Z,21.33
2018-02-22T10:59:14.178Z,18.80
2018-02-22T11:01:47.322Z,21.05
2018-02-22T11:04:14.932Z,21.60
2018-02-22T11:06:42.596Z,21.83
2018-02-22T11:09:10.927Z,21.08
2018-02-22T11:11:38.527Z,22.80
2018-02-22T11:14:06.118Z,21.98
2018-02-22T11:16:33.682Z,19.73
2018-02-22T11:19:01.275Z,22.45
2018-02-22T11:21:28.923Z,20.65
2018-02-22T11:23:56.477Z,18.48
2018-02-22T11:26:24.132Z,19.60
2018-02-22T11:28:51.700Z,21.30
2018-02-22T11:31:19.335Z,21.62
2018-02-22T11:33:46.920Z,21.25
2018-02-22T11:36:14.539Z,21.37
2018-02-22T11:38:42.927Z,19.62
2018-02-22T11:41:11.325Z,22.45
2018-02-22T11:43:38.940Z,21.08
2018-02-22T11:46:06.553Z,20.37
2018-02-22T11:48:34.159Z,20.85
2018-02-22T11:51:01.787Z,19.65
2018-02-22T11:53:29.424Z,19.83
2018-02-22T11:55:57.049Z,20.25
2018-02-22T11:58:24.681Z,21.60
2018-02-22T12:00:52.283Z,19.42
2018-02-22T12:03:20.642Z,21.17
2018-02-22T12:05:48.263Z,19.37
2018-02-22T12:08:15.841Z,19.55
2018-02-22T12:10:43.460Z,18.95
2018-02-22T12:13:11.065Z,20.83
2018-02-22T12:15:38.676Z,20.35
2018-02-22T12:18:06.259Z,20.05
2018-02-22T12:20:33.844Z,19.90
2018-02-22T12:23:01.468Z,21.35
2018-02-22T12:25:29.044Z,19.67
2018-02-22T12:27:56.639Z,20.30
2018-02-22T12:30:24.241Z,20.45
2018-02-22T12:32:51.804Z,20.23
2018-02-22T12:35:19.418Z,21.12
2018-02-22T12:37:47.048Z,21.05
2018-02-22T12:40:14.687Z,20.30
2018-02-22T12:42:42.316Z,24.35
2018-02-22T12:45:09.909Z,21.02
2018-02-22T12:47:37.507Z,21.10
2018-02-22T12:50:05.119Z,19.50
2018-02-22T12:52:32.719Z,20.30
2018-02-22T12:55:00.342Z,20.50
2018-02-22T12:57:27.956Z,20.50
2018-02-22T12:59:55.611Z,20.95
2018-02-22T13:02:23.157Z,18.83
2018-02-22T13:04:50.765Z,17.58
2018-02-22T13:07:19.122Z,20.70
2018-02-22T13:09:46.747Z,19.37
2018-02-22T13:12:14.348Z,22.02
2018-02-22T13:14:41.919Z,19.83
2018-02-22T13:17:10.307Z,19.30
2018-02-22T13:19:38.639Z,19.98
2018-02-22T13:22:06.230Z,19.42
2018-02-22T13:24:34.640Z,19.65
2018-02-22T13:27:02.209Z,19.70
2018-02-22T13:29:29.767Z,15.50
2018-02-22T13:31:57.382Z,19.08
2018-02-22T13:34:31.750Z,17.65
2018-02-22T13:36:59.352Z,17.80
2018-02-22T13:39:26.939Z,15.25
2018-02-22T13:41:55.311Z,17.10
2018-02-22T13:44:35.328Z,17.87
2018-02-22T13:47:02.950Z,17.90
2018-02-22T13:49:42.290Z,18.77
2018-02-22T13:52:09.911Z,16.40
2018-02-22T13:54:37.528Z,17.83
2018-02-22T13:57:23.858Z,16.02
2018-02-22T13:59:51.472Z,17.52
2018-02-22T14:02:27.906Z,17.15
2018-02-22T14:10:59.559Z,16.77
2018-02-22T14:13:27.133Z,16.27
2018-02-22T14:15:54.687Z,17.40
2018-02-22T14:18:22.323Z,14.75
2018-02-22T14:20:49.991Z,13.27
2018-02-22T14:23:17.608Z,14.30
2018-02-22T14:25:45.988Z,14.00
2018-02-22T14:28:13.628Z,14.10
2018-02-22T14:30:41.260Z,15.40
2018-02-22T14:33:08.872Z,15.10
2018-02-22T14:35:37.227Z,15.48
2018-02-22T14:38:04.823Z,15.65
2018-02-22T14:40:32.439Z,14.85
2018-02-22T14:43:00.086Z,15.07
2018-02-22T14:45:28.370Z,15.60
2018-02-22T14:47:55.961Z,14.45
2018-02-22T14:50:24.364Z,14.90
2018-02-22T14:52:51.991Z,13.48
2018-02-22T14:55:19.571Z,15.07
2018-02-22T14:57:47.958Z,15.15
2018-02-22T15:00:15.575Z,14.63
2018-02-22T15:02:43.140Z,14.00
2018-02-22T15:05:10.804Z,14.75
2018-02-22T15:07:38.392Z,13.30
2018-02-22T15:10:05.988Z,14.00
2018-02-22T15:12:33.592Z,14.50
2018-02-22T15:15:01.232Z,14.75
2018-02-22T15:17:28.864Z,12.82
2018-02-22T15:19:56.490Z,14.00
2018-02-22T15:22:24.853Z,13.20
2018-02-22T15:24:53.228Z,12.07
2018-02-22T15:27:20.852Z,14.50
2018-02-22T15:29:48.443Z,10.88
2018-02-22T15:32:16.063Z,13.48
2018-02-22T15:34:43.727Z,11.00
2018-02-22T15:37:11.366Z,13.15
2018-02-22T15:39:38.931Z,13.50
2018-02-22T15:42:07.448Z,10.65
2018-02-22T15:44:35.045Z,12.15
2018-02-22T15:47:03.485Z,14.52
2018-02-22T15:49:31.075Z,12.55
2018-02-22T15:52:09.890Z,14.68
2018-02-22T15:54:37.462Z,13.98
2018-02-22T15:57:05.611Z,13.40
2018-02-22T15:59:33.202Z,12.00
2018-02-22T16:02:01.553Z,14.27
2018-02-22T16:04:29.184Z,14.48
2018-02-22T16:06:56.789Z,14.23
2018-02-22T16:09:25.191Z,12.77
2018-02-22T16:11:58.943Z,13.65
2018-02-22T16:14:26.570Z,13.90
2018-02-22T16:16:54.196Z,12.80
2018-02-22T16:19:22.560Z,15.55
2018-02-22T16:21:50.163Z,11.90
2018-02-22T16:24:17.805Z,12.95
2018-02-22T16:26:46.203Z,14.25
2018-02-22T16:29:16.931Z,13.82
2018-02-22T16:31:44.545Z,14.48
2018-02-22T16:34:12.204Z,13.25
2018-02-22T16:36:39.823Z,13.40
2018-02-22T16:39:07.416Z,14.68
2018-02-22T16:41:35.020Z,13.82
2018-02-22T16:44:07.696Z,14.75
2018-02-22T16:46:36.068Z,13.10
2018-02-22T16:49:04.707Z,13.85
2018-02-22T16:51:32.330Z,12.15
2018-02-22T16:53:59.915Z,13.55
2018-02-22T16:56:27.539Z,14.95
2018-02-22T16:58:55.163Z,12.52
2018-02-22T17:01:22.750Z,14.32
2018-02-22T17:03:50.400Z,15.73
2018-02-22T17:06:18.020Z,15.10
2018-02-22T17:08:45.594Z,13.43
2018-02-22T17:11:13.245Z,13.32
2018-02-22T17:13:40.846Z,12.07
2018-02-22T17:16:08.460Z,14.40
2018-02-22T17:18:36.128Z,14.23
2018-02-22T17:21:03.722Z,13.13
2018-02-22T17:23:31.337Z,14.60
2018-02-22T17:26:04.573Z,12.80
2018-02-22T17:28:37.776Z,14.80
2018-02-22T17:31:10.955Z,14.30
2018-02-22T17:33:38.559Z,15.30
2018-02-22T17:36:13.831Z,14.82
2018-02-22T17:38:56.311Z,15.07
2018-02-22T17:41:32.483Z,14.57
2018-02-22T17:44:09.912Z,14.80
2018-02-22T17:46:55.616Z,15.15
2018-02-22T17:49:23.216Z,12.73
2018-02-22T17:51:50.800Z,16.55
2018-02-22T17:54:18.430Z,15.27
2018-02-22T17:56:46.045Z,16.92
2018-02-22T17:59:13.601Z,14.75
2018-02-22T18:01:41.216Z,16.42
2018-02-22T18:04:08.800Z,17.98
2018-02-22T18:06:36.400Z,21.50
2018-02-22T18:09:05.024Z,23.00
2018-02-22T18:11:34.619Z,22.15
2018-02-22T18:14:06.423Z,18.65
2018-02-22T18:16:34.030Z,21.92
2018-02-22T18:19:01.679Z,22.00
2018-02-22T18:21:30.020Z,22.55
2018-02-22T18:23:57.604Z,21.55
2018-02-22T18:26:25.185Z,21.62
2018-02-22T18:28:53.575Z,17.50
2018-02-22T18:31:21.184Z,19.52
2018-02-22T18:33:48.821Z,34.30
2018-02-22T18:36:17.179Z,18.45
2018-02-22T18:38:50.550Z,14.85
2018-02-22T18:41:18.890Z,32.00
2018-02-22T18:43:46.492Z,26.65
2018-02-22T18:46:14.894Z,30.40
2018-02-22T18:48:42.453Z,16.52
2018-02-22T18:51:10.034Z,16.30
2018-02-22T18:53:37.665Z,20.50
2018-02-22T18:56:05.293Z,18.48
2018-02-22T18:58:32.870Z,16.52
2018-02-22T19:01:01.253Z,17.55
2018-02-22T19:03:29.610Z,17.40
2018-02-22T19:05:59.250Z,17.62
2018-02-22T19:08:26.859Z,17.20
2018-02-22T19:10:54.511Z,18.80
2018-02-22T19:13:22.354Z,16.55
2018-02-22T19:15:49.925Z,16.85
2018-02-22T19:18:17.525Z,16.95
2018-02-22T19:20:45.138Z,16.67
2018-02-22T19:23:12.771Z,16.40
2018-02-22T19:25:41.153Z,15.15
2018-02-22T19:28:08.770Z,16.95
2018-02-22T19:30:36.383Z,16.85
2018-02-22T19:33:03.948Z,17.20
2018-02-22T19:35:31.568Z,17.00
2018-02-22T19:37:59.154Z,18.33
2018-02-22T19:40:26.755Z,19.90
2018-02-22T19:42:54.337Z,15.65
2018-02-22T19:45:21.991Z,17.60
2018-02-22T19:47:49.566Z,14.05
2018-02-22T19:50:17.184Z,16.65
2018-02-22T19:52:44.807Z,14.43
2018-02-22T19:55:13.199Z,15.23
2018-02-22T19:57:40.799Z,15.52
2018-02-22T20:00:08.430Z,15.30
2018-02-22T20:02:36.045Z,14.40
2018-02-22T20:10:52.398Z,15.10
2018-02-22T20:13:20.739Z,14.90
2018-02-22T20:15:48.365Z,14.65
2018-02-22T20:18:15.933Z,15.68
2018-02-22T20:20:43.550Z,18.27
2018-02-22T20:26:29.102Z,15.50
2018-02-22T20:28:56.709Z,16.90
2018-02-22T20:31:24.323Z,15.10
2018-02-22T20:33:51.959Z,16.30
2018-02-22T20:36:19.547Z,15.25
2018-02-22T20:38:47.191Z,15.57
2018-02-22T20:41:14.812Z,14.73
2018-02-22T20:43:42.439Z,16.75
2018-02-22T20:46:10.075Z,14.98
2018-02-22T20:48:37.726Z,13.50
2018-02-22T20:51:20.261Z,12.98
2018-02-22T20:53:47.859Z,15.75
2018-02-22T20:56:15.454Z,15.00
2018-02-22T20:58:43.056Z,16.83
2018-02-22T21:01:10.707Z,16.25
2018-02-22T21:03:38.309Z,16.15
2018-02-22T21:06:05.951Z,17.12
2018-02-22T21:08:33.553Z,16.37
2018-02-22T21:11:01.148Z,10.68
2018-02-22T21:13:28.727Z,13.77
2018-02-22T21:15:56.346Z,15.52
2018-02-22T21:18:23.925Z,15.85
2018-02-22T21:20:51.560Z,16.85
2018-02-22T21:23:19.147Z,15.90
2018-02-22T21:25:46.719Z,16.48
2018-02-22T21:28:14.284Z,16.85
2018-02-22T21:30:41.887Z,17.12
2018-02-22T21:33:09.511Z,16.50
2018-02-22T21:35:37.104Z,16.70
2018-02-22T21:38:05.453Z,14.95
2018-02-22T21:40:33.075Z,16.08
2018-02-22T21:43:00.713Z,15.90
2018-02-22T21:45:28.298Z,16.42
2018-02-22T21:47:55.917Z,17.00
2018-02-22T21:50:23.467Z,15.55
2018-02-22T21:52:51.106Z,14.52
2018-02-22T21:55:18.692Z,16.17
2018-02-22T21:57:46.243Z,16.52
2018-02-22T22:00:13.818Z,16.60
2018-02-22T22:02:42.184Z,14.80
2018-02-22T22:05:10.594Z,15.57
2018-02-22T22:07:38.195Z,17.48
2018-02-22T22:10:05.833Z,18.05
2018-02-22T22:12:33.444Z,18.05
2018-02-22T22:15:01.068Z,17.98
2018-02-22T22:17:28.698Z,16.48
2018-02-22T22:19:56.293Z,18.20
2018-02-22T22:22:23.934Z,19.83
2018-02-22T22:24:51.545Z,18.52
2018-02-22T22:27:19.133Z,18.30
2018-02-22T22:29:46.735Z,15.98
2018-02-22T22:32:14.320Z,15.43
2018-02-22T22:34:41.918Z,16.52
2018-02-22T22:37:09.540Z,18.90
2018-02-22T22:39:37.184Z,14.60
2018-02-22T22:42:04.778Z,14.25
2018-02-22T22:44:32.391Z,16.40
2018-02-22T22:46:59.991Z,17.90
2018-02-22T22:49:27.595Z,17.37
2018-02-22T22:51:55.985Z,18.87
2018-02-22T22:54:23.550Z,18.00
2018-02-22T22:56:51.180Z,15.93
2018-02-22T22:59:18.774Z,16.00
2018-02-22T23:01:46.348Z,16.33
2018-02-22T23:04:13.969Z,17.17
2018-02-22T23:06:42.340Z,17.77
2018-02-22T23:09:09.948Z,17.83
2018-02-22T23:11:37.519Z,20.75
2018-02-22T23:14:05.095Z,17.35
2018-02-22T23:16:32.736Z,16.33
2018-02-22T23:19:00.343Z,17.45
2018-02-22T23:21:28.707Z,16.60
2018-02-22T23:23:56.326Z,17.37
2018-02-22T23:26:23.898Z,20.08
2018-02-22T23:28:51.500Z,16.92
2018-02-22T23:31:19.870Z,17.42
2018-02-22T23:33:47.479Z,16.65
2018-02-22T23:36:15.863Z,16.70
2018-02-22T23:38:43.486Z,17.48
2018-02-22T23:41:27.662Z,18.52
2018-02-22T23:43:55.255Z,16.55
2018-02-22T23:46:22.850Z,17.62
2018-02-22T23:48:51.219Z,17.85
2018-02-22T23:51:18.833Z,15.80
2018-02-22T23:53:46.451Z,15.68
2018-02-22T23:56:14.796Z,16.30
2018-02-22T23:58:42.452Z,16.05
